Time;durP1;ratioP1;P1;durP2;ratioP2;P2;SDS_P1;SDS_P2;PMS_P1;PMS_P2;Temp;Humidity;BMP_temperature;BMP_pressure;BME280_temperature;BME280_humidity;BME280_pressure;Samples;Min_cycle;Max_cycle;Signal;HPM_P1;HPM_P2
2022/08/07 00:00:34;;;;;;;5.53;3.65;;;14.50;99.90;;;;;;5041144;28;20021;-58
2022/08/07 00:03:00;;;;;;;5.28;3.67;;;14.60;99.90;;;;;;5047697;28;20032;-57
2022/08/07 00:05:27;;;;;;;6.13;3.50;;;14.80;99.90;;;;;;5043250;28;20051;-58
2022/08/07 00:07:53;;;;;;;4.22;2.97;;;14.80;99.90;;;;;;5042554;28;20025;-59
2022/08/07 00:10:21;;;;;;;5.95;3.63;;;14.60;99.90;;;;;;5045754;28;20059;-57
2022/08/07 00:12:47;;;;;;;5.60;3.63;;;14.40;99.90;;;;;;5045071;28;20032;-57
2022/08/07 00:15:13;;;;;;;7.90;3.67;;;14.50;99.90;;;;;;5046596;28;20507;-57
2022/08/07 00:17:38;;;;;;;7.10;3.72;;;14.60;99.90;;;;;;5038575;28;20041;-57
2022/08/07 00:20:05;;;;;;;7.30;3.97;;;14.60;99.90;;;;;;5045390;28;20032;-58
2022/08/07 00:22:30;;;;;;;6.60;3.60;;;14.70;99.90;;;;;;5044482;28;20477;-58
2022/08/07 00:24:56;;;;;;;6.20;4.22;;;14.70;99.90;;;;;;5048345;28;20063;-59
2022/08/07 00:27:22;;;;;;;5.10;3.58;;;14.40;99.90;;;;;;5044546;28;20025;-57
2022/08/07 00:29:47;;;;;;;4.57;3.28;;;14.30;99.90;;;;;;5038165;28;20079;-57
2022/08/07 00:32:13;;;;;;;4.40;3.83;;;14.50;99.90;;;;;;5044698;28;20037;-57
2022/08/07 00:34:39;;;;;;;6.32;3.78;;;14.50;99.90;;;;;;5042678;28;20033;-57
2022/08/07 00:37:05;;;;;;;6.90;3.80;;;14.50;99.90;;;;;;5045880;28;20075;-56
2022/08/07 00:39:32;;;;;;;7.13;3.63;;;14.40;99.90;;;;;;5045378;28;20484;-57
2022/08/07 00:41:58;;;;;;;5.20;4.03;;;14.40;99.90;;;;;;5048795;28;20508;-58
2022/08/07 00:44:25;;;;;;;4.88;3.63;;;14.50;99.90;;;;;;5043165;28;20492;-58
2022/08/07 00:46:51;;;;;;;6.50;3.92;;;14.50;99.90;;;;;;5048497;28;20362;-58
2022/08/07 00:49:16;;;;;;;4.72;3.75;;;14.30;99.90;;;;;;5042119;28;20029;-57
2022/08/07 00:51:42;;;;;;;6.90;3.80;;;14.20;99.90;;;;;;5043224;28;20398;-59
2022/08/07 00:54:08;;;;;;;6.05;3.60;;;14.20;99.90;;;;;;5046322;28;20353;-57
2022/08/07 00:56:34;;;;;;;4.57;3.67;;;14.10;99.90;;;;;;5044027;28;20032;-58
2022/08/07 00:59:01;;;;;;;7.75;4.20;;;14.40;99.90;;;;;;5038972;28;20468;-57
2022/08/07 01:01:27;;;;;;;5.95;3.70;;;14.30;99.90;;;;;;5041928;28;20041;-58
2022/08/07 01:03:53;;;;;;;6.97;3.70;;;14.30;99.90;;;;;;5045695;28;20512;-57
2022/08/07 01:06:19;;;;;;;5.40;3.90;;;14.20;99.90;;;;;;5046943;28;20730;-58
2022/08/07 01:08:45;;;;;;;4.70;4.03;;;14.20;99.90;;;;;;5035833;28;20424;-58
2022/08/07 01:11:16;;;;;;;6.78;4.03;;;14.10;99.90;;;;;;5028219;28;20355;-58
2022/08/07 01:13:42;;;;;;;8.48;4.57;;;14.20;99.90;;;;;;5045458;28;20107;-58
2022/08/07 01:16:08;;;;;;;5.13;3.83;;;13.90;99.90;;;;;;5038674;28;20104;-58
2022/08/07 01:18:35;;;;;;;5.13;4.10;;;13.90;99.90;;;;;;5050345;28;20040;-57
2022/08/07 01:21:09;;;;;;;6.57;4.40;;;14.10;99.90;;;;;;5043991;28;20426;-57
2022/08/07 01:23:36;;;;;;;6.70;3.80;;;13.90;99.90;;;;;;5049769;28;20496;-58
2022/08/07 01:26:03;;;;;;;4.50;3.88;;;13.80;99.90;;;;;;5047314;28;20029;-57
2022/08/07 01:28:29;;;;;;;6.32;4.38;;;13.80;99.90;;;;;;5047523;28;20025;-56
2022/08/07 01:30:55;;;;;;;6.28;4.20;;;13.90;99.90;;;;;;5043350;28;20790;-56
2022/08/07 01:33:22;;;;;;;6.72;4.65;;;13.80;99.90;;;;;;5051161;28;20170;-57
2022/08/07 01:35:48;;;;;;;5.22;4.00;;;13.70;99.90;;;;;;5045722;28;20031;-58
2022/08/07 01:38:13;;;;;;;6.72;4.35;;;13.70;99.90;;;;;;5043454;28;20036;-57
2022/08/07 01:40:39;;;;;;;6.75;4.43;;;14.00;99.90;;;;;;5043405;28;20692;-57
2022/08/07 01:43:06;;;;;;;5.90;4.40;;;14.10;99.90;;;;;;5045521;28;20025;-56
2022/08/07 01:45:32;;;;;;;7.10;4.65;;;14.00;99.90;;;;;;5037927;28;20055;-58
2022/08/07 01:47:58;;;;;;;5.97;4.72;;;13.90;99.90;;;;;;5040037;28;20432;-57
2022/08/07 01:50:25;;;;;;;5.28;4.43;;;13.90;99.90;;;;;;5039910;28;20110;-57
2022/08/07 01:52:53;;;;;;;6.05;4.75;;;13.90;99.90;;;;;;5044548;28;20036;-58
2022/08/07 01:55:22;;;;;;;9.23;4.43;;;13.70;99.90;;;;;;5042828;28;20032;-57
2022/08/07 01:57:49;;;;;;;6.30;4.43;;;13.60;99.90;;;;;;5041531;28;20025;-57
2022/08/07 02:00:15;;;;;;;6.38;4.38;;;13.50;99.90;;;;;;5037099;28;20170;-57
2022/08/07 02:02:45;;;;;;;6.43;4.30;;;13.40;99.90;;;;;;5045720;28;20123;-57
2022/08/07 02:05:25;;;;;;;9.07;4.50;;;13.30;99.90;;;;;;5043460;28;20025;-57
2022/08/07 02:07:53;;;;;;;6.63;4.57;;;13.40;99.90;;;;;;5035915;28;20147;-57
2022/08/07 02:10:24;;;;;;;5.57;4.50;;;13.60;99.90;;;;;;5037331;28;20501;-57
2022/08/07 02:12:51;;;;;;;7.07;4.53;;;13.60;99.90;;;;;;5038815;28;20492;-56
2022/08/07 02:15:23;;;;;;;6.93;5.13;;;13.50;99.90;;;;;;5041964;28;20029;-58
2022/08/07 02:17:51;;;;;;;5.63;4.85;;;13.50;99.90;;;;;;5040538;28;20429;-57
2022/08/07 02:20:18;;;;;;;6.00;4.68;;;13.50;99.90;;;;;;5045444;28;20024;-57
2022/08/07 02:22:46;;;;;;;8.43;4.68;;;13.40;99.90;;;;;;5043276;28;20017;-56
2022/08/07 02:25:14;;;;;;;6.95;4.47;;;13.40;99.90;;;;;;5046359;28;20147;-57
2022/08/07 02:27:42;;;;;;;5.63;4.55;;;13.60;99.90;;;;;;5045825;28;20478;-57
2022/08/07 02:30:08;;;;;;;7.18;5.00;;;13.60;99.90;;;;;;5037073;28;20024;-57
2022/08/07 02:32:37;;;;;;;9.07;5.07;;;13.50;99.90;;;;;;5045811;28;20037;-58
2022/08/07 02:35:07;;;;;;;8.30;4.65;;;13.70;99.90;;;;;;5044414;28;20021;-57
2022/08/07 02:37:35;;;;;;;7.97;4.57;;;13.70;99.90;;;;;;5041717;28;20044;-57
2022/08/07 02:40:03;;;;;;;5.65;4.70;;;13.40;99.90;;;;;;5042563;28;20024;-58
2022/08/07 02:42:31;;;;;;;7.47;4.40;;;13.20;99.90;;;;;;5040015;28;20032;-57
2022/08/07 02:44:58;;;;;;;5.95;4.40;;;13.40;99.90;;;;;;5042681;28;20028;-57
2022/08/07 02:47:24;;;;;;;8.68;5.20;;;13.40;99.90;;;;;;5038045;28;20033;-57
2022/08/07 02:49:50;;;;;;;5.88;4.90;;;13.50;99.90;;;;;;5043448;28;20013;-57
2022/08/07 02:52:26;;;;;;;8.07;5.00;;;13.40;99.90;;;;;;5039908;28;20040;-58
2022/08/07 02:54:54;;;;;;;7.05;4.68;;;13.20;99.90;;;;;;5043223;28;20025;-57
2022/08/07 02:57:22;;;;;;;6.28;4.97;;;13.50;99.90;;;;;;5039505;28;20140;-57
2022/08/07 02:59:50;;;;;;;8.82;5.22;;;13.50;99.90;;;;;;5034147;28;20044;-57
2022/08/07 03:02:16;;;;;;;6.78;5.38;;;13.50;99.90;;;;;;5042677;28;20068;-57
2022/08/07 03:04:44;;;;;;;5.82;4.28;;;13.30;99.90;;;;;;5042804;28;20374;-59
2022/08/07 03:07:11;;;;;;;6.70;5.05;;;13.10;99.90;;;;;;5040139;28;20031;-57
2022/08/07 03:09:37;;;;;;;8.80;5.05;;;13.00;99.90;;;;;;5045297;28;20025;-57
2022/08/07 03:12:06;;;;;;;8.35;5.00;;;13.00;99.90;;;;;;5043054;28;20025;-57
2022/08/07 03:14:35;;;;;;;5.85;4.95;;;13.10;99.90;;;;;;5041170;28;20021;-57
2022/08/07 03:17:01;;;;;;;6.85;5.22;;;12.90;99.90;;;;;;5043036;28;20031;-57
2022/08/07 03:19:27;;;;;;;8.98;5.57;;;12.90;99.90;;;;;;5042343;28;20020;-57
2022/08/07 03:21:54;;;;;;;6.00;5.22;;;13.20;99.90;;;;;;5042458;28;20100;-56
2022/08/07 03:24:20;;;;;;;5.65;5.05;;;13.30;99.90;;;;;;5041817;28;20055;-58
2022/08/07 03:26:51;;;;;;;6.70;5.25;;;13.10;99.90;;;;;;5038101;28;20242;-57
2022/08/07 03:29:18;;;;;;;7.32;4.95;;;12.90;99.90;;;;;;5040426;28;20105;-57
2022/08/07 03:31:46;;;;;;;6.53;4.97;;;12.80;99.90;;;;;;5040119;28;20026;-57
2022/08/07 03:34:15;;;;;;;5.85;4.68;;;12.90;99.90;;;;;;5041089;28;20035;-59
2022/08/07 03:36:41;;;;;;;7.50;5.13;;;12.80;99.90;;;;;;5042542;28;20033;-56
2022/08/07 03:39:10;;;;;;;7.93;5.30;;;12.80;99.90;;;;;;5038018;28;20516;-56
2022/08/07 03:41:37;;;;;;;6.28;4.90;;;12.80;99.90;;;;;;5036970;28;20052;-58
2022/08/07 03:44:03;;;;;;;8.27;5.00;;;12.90;99.90;;;;;;5039135;28;20520;-57
2022/08/07 03:46:30;;;;;;;8.10;5.65;;;12.90;99.90;;;;;;5035670;28;20822;-57
2022/08/07 03:48:56;;;;;;;7.25;4.90;;;12.90;99.90;;;;;;5041220;28;20402;-57
2022/08/07 03:51:22;;;;;;;6.80;5.45;;;12.10;99.90;;;;;;5036978;28;20096;-57
2022/08/07 03:53:48;;;;;;;6.88;5.20;;;12.90;99.90;;;;;;5041736;28;20595;-57
2022/08/07 03:56:19;;;;;;;7.15;5.35;;;12.80;99.90;;;;;;5042140;28;20029;-56
2022/08/07 03:58:45;;;;;;;7.07;6.05;;;12.80;99.90;;;;;;5043211;28;20887;-57
2022/08/07 04:01:12;;;;;;;6.60;5.28;;;12.60;99.90;;;;;;5039180;28;20044;-57
2022/08/07 04:03:38;;;;;;;8.32;5.78;;;12.70;99.90;;;;;;5043387;28;20034;-56
2022/08/07 04:06:08;;;;;;;6.75;5.60;;;12.90;99.90;;;;;;5039439;28;20021;-57
2022/08/07 04:08:33;;;;;;;8.27;5.97;;;12.90;99.90;;;;;;5040570;28;20057;-58
2022/08/07 04:10:59;;;;;;;8.32;6.10;;;12.70;99.90;;;;;;5044183;28;20064;-57
2022/08/07 04:13:25;;;;;;;8.63;5.93;;;12.60;99.90;;;;;;5042311;28;20029;-57
2022/08/07 04:15:51;;;;;;;8.82;6.53;;;12.80;99.90;;;;;;5039418;28;20021;-57
2022/08/07 04:18:17;;;;;;;8.02;6.28;;;12.80;99.90;;;;;;5042467;28;20033;-57
2022/08/07 04:20:42;;;;;;;6.82;5.63;;;12.90;99.90;;;;;;5045131;28;20021;-57
2022/08/07 04:23:08;;;;;;;7.18;5.93;;;12.90;99.90;;;;;;5044079;28;20033;-57
2022/08/07 04:25:37;;;;;;;9.70;6.18;;;13.00;99.90;;;;;;5044321;28;20555;-57
2022/08/07 04:28:07;;;;;;;7.47;6.20;;;13.00;99.90;;;;;;5042323;28;20032;-58
2022/08/07 04:30:34;;;;;;;7.15;6.35;;;12.90;99.90;;;;;;5046808;28;20036;-57
2022/08/07 04:33:04;;;;;;;8.07;6.68;;;13.00;99.90;;;;;;5047680;28;20060;-57
2022/08/07 04:35:30;;;;;;;8.35;6.22;;;12.80;99.90;;;;;;5045914;28;20419;-57
2022/08/07 04:37:55;;;;;;;7.22;5.70;;;12.90;99.90;;;;;;5043731;28;20033;-58
2022/08/07 04:40:22;;;;;;;10.60;6.50;;;12.90;99.90;;;;;;5047129;28;20090;-56
2022/08/07 04:42:48;;;;;;;8.75;6.68;;;13.00;99.90;;;;;;5046022;28;20035;-57
2022/08/07 04:45:14;;;;;;;7.32;6.50;;;12.90;99.90;;;;;;5045731;28;20016;-58
2022/08/07 04:47:52;;;;;;;10.65;6.22;;;12.90;99.90;;;;;;5048078;28;20048;-56
2022/08/07 04:50:24;;;;;;;7.10;5.97;;;13.00;99.90;;;;;;5048796;28;20025;-57
2022/08/07 04:52:58;;;;;;;9.27;6.80;;;13.00;99.90;;;;;;5044752;28;20025;-57
2022/08/07 04:55:53;;;;;;;8.63;6.82;;;13.10;99.90;;;;;;5046156;28;20477;-57
2022/08/07 04:58:30;;;;;;;8.65;6.55;;;13.10;99.90;;;;;;5044659;28;20697;-57
2022/08/07 05:01:02;;;;;;;10.30;6.53;;;13.10;99.90;;;;;;5042786;28;20762;-57
2022/08/07 05:03:50;;;;;;;12.65;7.32;;;13.10;99.90;;;;;;5039631;28;20388;-57
2022/08/07 05:06:53;;;;;;;7.85;6.65;;;13.20;99.90;;;;;;5045310;28;20472;-57
2022/08/07 05:09:37;;;;;;;8.27;7.00;;;13.20;99.90;;;;;;5038796;28;20036;-57
2022/08/07 05:12:05;;;;;;;8.70;6.93;;;13.20;99.90;;;;;;5034678;28;20444;-56
2022/08/07 05:14:43;;;;;;;9.77;6.95;;;13.30;99.90;;;;;;5043819;28;20021;-58
2022/08/07 05:17:13;;;;;;;8.80;6.68;;;13.40;99.90;;;;;;5047782;28;20052;-57
2022/08/07 05:19:43;;;;;;;11.07;7.78;;;13.40;99.90;;;;;;5042494;28;20020;-58
2022/08/07 05:22:10;;;;;;;10.07;7.53;;;13.40;99.90;;;;;;5043393;28;20377;-57
2022/08/07 05:24:38;;;;;;;9.48;7.53;;;13.40;99.90;;;;;;5049948;28;20198;-57
2022/08/07 05:27:06;;;;;;;11.80;7.90;;;13.70;99.90;;;;;;5047382;28;20617;-59
2022/08/07 05:29:35;;;;;;;10.32;7.78;;;13.60;99.90;;;;;;5040064;28;20060;-59
2022/08/07 05:32:02;;;;;;;9.82;7.70;;;13.80;99.90;;;;;;5041390;28;20025;-59
2022/08/07 05:34:29;;;;;;;10.05;8.00;;;13.90;99.90;;;;;;5050027;28;20033;-59
2022/08/07 05:36:55;;;;;;;11.73;7.47;;;14.00;99.90;;;;;;5043435;28;20086;-59
2022/08/07 05:39:22;;;;;;;10.60;7.93;;;14.20;99.90;;;;;;5042026;28;20087;-59
2022/08/07 05:41:48;;;;;;;9.38;7.45;;;14.40;99.90;;;;;;5044492;28;20028;-60
2022/08/07 05:44:16;;;;;;;10.80;7.78;;;14.30;99.90;;;;;;5045500;28;20552;-59
2022/08/07 05:46:43;;;;;;;10.75;7.45;;;14.50;99.90;;;;;;5044647;28;20083;-59
2022/08/07 05:49:10;;;;;;;9.57;8.05;;;14.70;99.90;;;;;;5043632;28;20357;-60
2022/08/07 05:51:37;;;;;;;10.52;7.72;;;14.70;99.90;;;;;;5035876;28;20025;-59
2022/08/07 05:54:03;;;;;;;10.35;7.75;;;14.90;99.90;;;;;;5045199;28;20067;-59
2022/08/07 05:56:30;;;;;;;11.18;7.95;;;14.80;99.90;;;;;;5046624;28;20033;-60
2022/08/07 05:58:58;;;;;;;11.52;7.85;;;15.00;99.90;;;;;;5043218;28;20043;-59
2022/08/07 06:01:26;;;;;;;10.65;7.43;;;15.10;99.90;;;;;;5038625;28;20072;-59
2022/08/07 06:03:53;;;;;;;10.32;7.93;;;15.10;99.90;;;;;;5045396;28;20029;-59
2022/08/07 06:06:19;;;;;;;10.50;7.35;;;15.10;99.90;;;;;;5045539;28;20032;-59
2022/08/07 06:08:46;;;;;;;10.50;7.60;;;15.20;99.90;;;;;;5045865;28;20029;-59
2022/08/07 06:11:12;;;;;;;11.30;7.38;;;15.30;99.90;;;;;;5040978;28;20036;-59
2022/08/07 06:13:39;;;;;;;8.30;6.97;;;15.30;99.90;;;;;;5040150;28;20187;-59
2022/08/07 06:16:06;;;;;;;8.52;6.78;;;15.40;99.90;;;;;;5045587;28;20503;-59
2022/08/07 06:18:32;;;;;;;10.25;7.50;;;;;;;;;;5039677;28;20067;-59
2022/08/07 06:21:03;;;;;;;11.27;7.20;;;15.60;99.90;;;;;;5044420;28;20028;-59
2022/08/07 06:23:32;;;;;;;10.00;6.63;;;15.90;99.90;;;;;;5043425;28;20417;-59
2022/08/07 06:25:59;;;;;;;9.30;6.15;;;16.10;99.90;;;;;;5044178;28;20017;-59
2022/08/07 06:28:24;;;;;;;8.43;6.40;;;16.20;99.90;;;;;;5042833;28;20025;-60
2022/08/07 06:30:50;;;;;;;5.78;4.95;;;16.20;99.90;;;;;;5042342;28;20039;-59
2022/08/07 06:33:17;;;;;;;8.50;6.00;;;16.10;99.90;;;;;;5041335;28;20075;-59
2022/08/07 06:35:42;;;;;;;9.10;5.18;;;16.10;99.90;;;;;;5042482;28;20036;-59
2022/08/07 06:38:08;;;;;;;7.05;4.70;;;16.30;99.90;;;;;;5045382;28;20025;-59
2022/08/07 06:40:39;;;;;;;6.82;4.82;;;16.30;99.90;;;;;;5043791;28;20036;-59
2022/08/07 06:43:07;;;;;;;7.82;4.80;;;16.40;99.90;;;;;;5032984;28;20036;-59
2022/08/07 06:45:33;;;;;;;7.18;4.95;;;16.60;99.90;;;;;;5042621;28;20100;-60
2022/08/07 06:48:00;;;;;;;6.63;4.70;;;16.70;99.90;;;;;;5040499;28;20784;-59
2022/08/07 06:50:28;;;;;;;7.75;4.47;;;16.70;99.90;;;;;;5048499;28;20020;-59
2022/08/07 06:52:55;;;;;;;7.18;5.00;;;16.70;99.90;;;;;;5039643;28;20032;-59
2022/08/07 06:55:29;;;;;;;7.18;3.80;;;16.80;99.90;;;;;;5046692;28;20036;-59
2022/08/07 06:57:58;;;;;;;10.23;4.47;;;16.90;99.90;;;;;;5041879;28;20090;-59
2022/08/07 07:00:26;;;;;;;6.68;4.25;;;17.10;99.90;;;;;;5038035;28;20032;-60
2022/08/07 07:02:53;;;;;;;6.18;4.85;;;17.20;99.90;;;;;;5041673;28;20064;-59
2022/08/07 07:05:20;;;;;;;6.75;4.20;;;17.20;99.90;;;;;;5043797;28;20473;-59
2022/08/07 07:07:46;;;;;;;8.10;4.25;;;17.30;99.90;;;;;;5044213;28;20067;-59
2022/08/07 07:10:13;;;;;;;7.07;4.18;;;17.40;99.90;;;;;;5043125;28;20049;-59
2022/08/07 07:12:45;;;;;;;5.72;3.95;;;17.40;99.90;;;;;;5038576;28;20025;-60
2022/08/07 07:15:22;;;;;;;6.72;4.10;;;17.60;99.90;;;;;;5039348;28;20378;-60
2022/08/07 07:17:55;;;;;;;5.38;4.07;;;17.70;99.90;;;;;;5038158;28;20037;-60
2022/08/07 07:20:30;;;;;;;12.60;5.50;;;17.70;99.90;;;;;;5042973;28;20044;-59
2022/08/07 07:22:57;;;;;;;11.05;5.65;;;17.70;99.90;;;;;;5043842;28;20056;-59
2022/08/07 07:25:23;;;;;;;8.85;5.20;;;17.90;99.90;;;;;;5044760;28;20036;-60
2022/08/07 07:27:57;;;;;;;8.95;5.07;;;18.10;99.90;;;;;;5047927;28;20027;-60
2022/08/07 07:30:28;;;;;;;16.77;7.28;;;18.20;99.90;;;;;;5038408;28;20025;-59
2022/08/07 07:32:56;;;;;;;15.98;8.80;;;18.40;99.90;;;;;;5044301;28;20389;-60
2022/08/07 07:35:23;;;;;;;21.55;10.35;;;18.40;99.90;;;;;;5040576;28;20032;-60
2022/08/07 07:37:49;;;;;;;17.55;8.65;;;18.40;99.90;;;;;;5042808;28;20037;-60
2022/08/07 07:40:18;;;;;;;13.95;7.07;;;18.60;99.90;;;;;;5044416;28;20496;-60
2022/08/07 07:42:46;;;;;;;16.40;7.57;;;18.50;99.90;;;;;;5042306;28;20025;-61
2022/08/07 07:45:14;;;;;;;21.50;8.50;;;18.50;99.90;;;;;;5040643;28;20017;-58
2022/08/07 07:47:42;;;;;;;47.92;28.38;;;18.70;99.90;;;;;;5038721;28;20013;-60
2022/08/07 07:50:10;;;;;;;18.20;8.55;;;18.70;99.90;;;;;;5037190;28;20021;-60
2022/08/07 07:52:37;;;;;;;21.00;8.23;;;18.80;99.90;;;;;;5035201;28;20040;-61
2022/08/07 07:55:04;;;;;;;18.55;7.78;;;18.90;99.90;;;;;;5042852;28;20040;-60
2022/08/07 07:57:31;;;;;;;16.98;7.75;;;19.00;99.90;;;;;;5042385;28;20025;-60
2022/08/07 07:59:59;;;;;;;16.42;7.85;;;19.00;99.90;;;;;;5052655;28;20036;-61
2022/08/07 08:02:27;;;;;;;15.10;7.60;;;19.10;99.90;;;;;;5044480;28;20025;-61
2022/08/07 08:04:54;;;;;;;22.05;7.95;;;19.30;99.90;;;;;;5054059;28;20032;-60
2022/08/07 08:07:22;;;;;;;16.02;7.00;;;19.30;99.90;;;;;;5036282;28;20033;-61
2022/08/07 08:09:49;;;;;;;15.65;7.05;;;19.20;99.90;;;;;;5045523;28;20033;-60
2022/08/07 08:12:16;;;;;;;15.98;6.82;;;19.10;99.90;;;;;;5051950;28;20028;-60
2022/08/07 08:14:42;;;;;;;14.25;6.82;;;19.40;99.90;;;;;;5046606;28;20043;-61
2022/08/07 08:17:11;;;;;;;15.75;7.03;;;19.50;99.90;;;;;;5048676;28;20025;-61
2022/08/07 08:19:38;;;;;;;13.00;5.72;;;19.60;99.90;;;;;;5050748;28;20079;-61
2022/08/07 08:27:38;;;;;;;9.77;4.50;;;19.80;99.90;;;;;;5053367;28;20377;-62
2022/08/07 08:30:08;;;;;;;12.23;4.65;;;19.90;99.90;;;;;;5038129;28;20031;-60
2022/08/07 08:32:39;;;;;;;9.30;4.43;;;19.90;99.90;;;;;;5045774;28;20033;-61
2022/08/07 08:35:08;;;;;;;10.35;4.82;;;19.80;99.90;;;;;;5044644;28;20151;-60
2022/08/07 08:37:35;;;;;;;10.38;4.50;;;19.90;99.90;;;;;;5050747;28;20540;-61
2022/08/07 08:40:08;;;;;;;11.63;4.35;;;20.00;99.90;;;;;;5045262;28;20443;-60
2022/08/07 08:43:02;;;;;;;8.02;2.72;;;20.00;99.90;;;;;;5050935;28;20540;-60
2022/08/07 08:45:40;;;;;;;2.30;1.45;;;20.20;99.90;;;;;;5044381;28;20047;-60
2022/08/07 08:48:27;;;;;;;3.95;1.52;;;20.30;99.90;;;;;;5043809;28;20051;-61
2022/08/07 08:51:01;;;;;;;4.10;1.55;;;20.40;99.90;;;;;;5047079;28;20400;-60
2022/08/07 08:53:55;;;;;;;4.13;1.50;;;20.60;99.90;;;;;;5045665;28;20055;-61
2022/08/07 08:56:29;;;;;;;4.32;1.50;;;20.80;99.90;;;;;;5049224;28;20045;-60
2022/08/07 08:59:19;;;;;;;6.47;2.97;;;20.80;99.90;;;;;;5041953;28;20036;-61
2022/08/07 09:02:06;;;;;;;5.43;3.45;;;20.80;99.90;;;;;;5037882;28;20118;-61
2022/08/07 09:04:52;;;;;;;2.45;1.55;;;21.00;99.90;;;;;;5043965;28;20037;-61
2022/08/07 09:07:41;;;;;;;1.60;0.80;;;21.10;99.90;;;;;;5042364;28;20044;-61
2022/08/07 09:10:30;;;;;;;2.22;0.90;;;21.20;99.90;;;;;;5043156;28;20480;-61
2022/08/07 09:13:28;;;;;;;5.28;0.75;;;21.20;99.90;;;;;;5044852;28;20032;-60
2022/08/07 09:16:20;;;;;;;1.42;0.70;;;21.20;99.90;;;;;;5047212;28;20044;-60
2022/08/07 09:19:10;;;;;;;1.40;0.90;;;21.30;99.90;;;;;;5042351;28;20100;-61
2022/08/07 09:22:08;;;;;;;2.42;0.70;;;21.20;99.90;;;;;;5042892;28;20071;-61
2022/08/07 09:25:07;;;;;;;2.10;0.80;;;21.20;99.90;;;;;;5043015;28;20108;-61
2022/08/07 09:27:41;;;;;;;3.33;0.70;;;21.50;99.90;;;;;;5043556;28;20039;-60
2022/08/07 09:30:10;;;;;;;4.45;0.60;;;21.40;99.90;;;;;;5045173;28;20028;-61
2022/08/07 09:32:48;;;;;;;1.17;0.60;;;21.40;99.90;;;;;;5043830;28;20056;-61
2022/08/07 09:35:34;;;;;;;6.82;0.60;;;21.20;99.90;;;;;;5043128;28;20509;-61
2022/08/07 09:38:03;;;;;;;1.48;0.60;;;21.40;99.90;;;;;;5040941;28;20116;-62
2022/08/07 09:40:52;;;;;;;1.02;0.60;;;21.40;99.90;;;;;;5046617;28;20646;-60
2022/08/07 09:43:35;;;;;;;1.45;0.60;;;21.90;99.90;;;;;;5045189;28;20040;-61
2022/08/07 09:46:03;;;;;;;1.75;0.80;;;21.80;99.90;;;;;;5040099;28;20763;-62
2022/08/07 09:48:53;;;;;;;2.05;0.80;;;21.90;99.90;;;;;;5041294;28;20029;-62
2022/08/07 09:51:18;;;;;;;1.23;0.63;;;21.70;99.90;;;;;;5039614;28;20476;-60
2022/08/07 09:53:48;;;;;;;2.70;0.65;;;21.80;99.90;;;;;;5043180;28;20091;-61
2022/08/07 09:56:57;;;;;;;2.55;0.90;;;22.00;99.90;;;;;;5043308;28;20040;-61
2022/08/07 09:59:41;;;;;;;8.75;4.07;;;22.00;99.90;;;;;;5039608;28;20040;-58
2022/08/07 10:02:22;;;;;;;12.00;8.60;;;22.00;99.90;;;;;;5042553;28;20021;-56
2022/08/07 10:05:20;;;;;;;6.80;4.30;;;21.90;99.90;;;;;;5041621;28;20468;-60
2022/08/07 10:08:22;;;;;;;1.58;0.80;;;22.00;99.90;;;;;;5044796;28;20013;-59
2022/08/07 10:10:58;;;;;;;2.92;1.20;;;22.10;99.90;;;;;;5043133;28;20480;-60
2022/08/07 10:13:29;;;;;;;2.08;0.90;;;22.00;99.90;;;;;;5041429;28;20040;-60
2022/08/07 10:16:14;;;;;;;3.97;1.40;;;22.10;99.90;;;;;;5045893;28;20395;-61
2022/08/07 10:18:57;;;;;;;2.08;1.17;;;22.00;99.90;;;;;;5037862;28;20025;-60
2022/08/07 10:21:28;;;;;;;;;;;22.20;99.90;;;;;;5045041;28;20029;-60
2022/08/07 10:24:06;;;;;;;1.80;0.90;;;22.20;99.90;;;;;;5046304;28;19916;-61
2022/08/07 10:27:01;;;;;;;2.55;0.88;;;22.30;99.90;;;;;;5037175;28;20041;-61
2022/08/07 10:29:46;;;;;;;3.33;1.50;;;22.30;99.90;;;;;;5037080;28;20021;-59
2022/08/07 10:32:39;;;;;;;2.83;1.15;;;22.30;99.90;;;;;;5040380;28;20028;-62
2022/08/07 10:35:19;;;;;;;4.18;1.00;;;22.30;99.90;;;;;;5042467;28;20035;-61
2022/08/07 10:37:59;;;;;;;4.72;1.05;;;22.40;99.90;;;;;;5053057;28;20017;-61
2022/08/07 10:40:41;;;;;;;3.97;1.63;;;22.30;99.90;;;;;;5044641;28;20499;-61
2022/08/07 10:43:15;;;;;;;2.97;1.10;;;22.30;99.90;;;;;;5044058;28;20074;-60
2022/08/07 10:45:48;;;;;;;1.27;0.88;;;22.10;99.90;;;;;;5040830;28;20028;-61
2022/08/07 10:48:19;;;;;;;4.85;1.20;;;22.30;99.90;;;;;;5042774;28;20017;-61
2022/08/07 10:50:49;;;;;;;1.80;0.93;;;22.30;99.90;;;;;;5049820;28;20044;-62
2022/08/07 10:53:35;;;;;;;2.25;0.90;;;22.30;99.90;;;;;;5044414;28;20029;-62
2022/08/07 10:56:18;;;;;;;3.38;1.10;;;22.30;99.90;;;;;;5043873;28;20068;-61
2022/08/07 10:59:02;;;;;;;;;;;22.50;99.90;;;;;;5043547;28;20021;-61
2022/08/07 11:01:29;;;;;;;2.40;1.02;;;22.40;99.90;;;;;;5042119;28;20395;-61
2022/08/07 11:04:02;;;;;;;1.65;1.17;;;22.50;99.90;;;;;;5038811;28;20074;-60
2022/08/07 11:06:37;;;;;;;3.80;1.15;;;22.70;99.90;;;;;;5045913;28;20035;-61
2022/08/07 11:09:44;;;;;;;1.92;1.13;;;22.50;99.90;;;;;;5047886;28;20478;-61
2022/08/07 11:12:24;;;;;;;3.90;1.00;;;22.60;99.90;;;;;;5043189;28;20032;-61
2022/08/07 11:14:57;;;;;;;2.95;1.05;;;22.60;99.90;;;;;;5042377;28;20156;-62
2022/08/07 11:17:40;;;;;;;3.33;1.10;;;22.70;99.90;;;;;;5041706;28;20111;-61
2022/08/07 11:20:21;;;;;;;2.80;1.25;;;22.70;99.90;;;;;;5056208;28;20431;-61
2022/08/07 11:23:02;;;;;;;3.38;1.20;;;22.80;99.90;;;;;;5040250;28;20033;-62
2022/08/07 11:25:41;;;;;;;3.65;1.30;;;22.60;99.90;;;;;;5043380;28;20434;-61
2022/08/07 11:28:28;;;;;;;5.50;1.30;;;22.70;99.90;;;;;;5039434;28;20569;-61
2022/08/07 11:31:03;;;;;;;5.55;1.55;;;22.80;99.90;;;;;;5043486;28;20021;-61
2022/08/07 11:33:43;;;;;;;6.57;1.10;;;22.80;99.90;;;;;;5046616;28;20124;-61
2022/08/07 11:36:38;;;;;;;1.95;1.13;;;22.70;99.90;;;;;;5044636;28;20545;-60
2022/08/07 11:39:33;;;;;;;2.50;0.95;;;22.90;99.90;;;;;;5045939;28;20537;-61
2022/08/07 11:42:16;;;;;;;4.50;1.25;;;23.00;99.90;;;;;;5044050;28;20045;-60
2022/08/07 11:45:01;;;;;;;2.28;1.08;;;22.80;99.90;;;;;;5042399;28;20032;-61
2022/08/07 11:47:48;;;;;;;3.17;1.38;;;22.90;99.90;;;;;;5046556;28;20026;-61
2022/08/07 11:50:33;;;;;;;2.78;1.10;;;23.00;99.90;;;;;;5051977;28;20389;-60
2022/08/07 11:53:38;;;;;;;1.77;0.95;;;22.90;99.90;;;;;;5047273;28;20079;-61
2022/08/07 11:56:25;;;;;;;2.90;1.20;;;23.10;99.90;;;;;;5046651;28;20548;-60
2022/08/07 11:59:25;;;;;;;4.90;1.65;;;23.00;99.90;;;;;;5042294;28;20113;-61
2022/08/07 12:02:09;;;;;;;1.88;0.90;;;22.90;99.90;;;;;;5044576;28;20066;-61
2022/08/07 12:05:05;;;;;;;1.85;0.85;;;22.80;99.90;;;;;;5041371;28;20032;-60
2022/08/07 12:07:44;;;;;;;3.47;1.20;;;23.00;99.90;;;;;;5047781;28;20025;-61
2022/08/07 12:10:37;;;;;;;6.50;1.60;;;23.00;99.90;;;;;;5049921;28;20025;-61
2022/08/07 12:13:10;;;;;;;3.20;0.90;;;23.10;99.90;;;;;;5046557;28;20040;-60
2022/08/07 12:15:46;;;;;;;3.72;1.38;;;23.30;99.90;;;;;;5044261;28;20025;-62
2022/08/07 12:18:20;;;;;;;2.08;1.00;;;23.50;99.90;;;;;;5037589;28;20033;-60
2022/08/07 12:21:15;;;;;;;4.25;1.00;;;23.30;99.90;;;;;;5043981;28;20048;-61
2022/08/07 12:24:08;;;;;;;1.92;1.10;;;23.30;99.90;;;;;;5046834;28;20030;-60
2022/08/07 12:26:49;;;;;;;1.60;0.90;;;23.20;99.90;;;;;;5039112;28;21787;-61
2022/08/07 12:29:22;;;;;;;3.75;1.20;;;23.10;99.90;;;;;;5041481;28;20033;-60
2022/08/07 12:32:02;;;;;;;2.33;1.10;;;23.30;99.90;;;;;;5048746;28;20039;-61
2022/08/07 12:34:31;;;;;;;3.85;0.90;;;23.30;99.90;;;;;;5047703;28;20458;-60
2022/08/07 12:36:58;;;;;;;2.38;1.10;;;23.30;99.90;;;;;;5043573;28;20029;-60
2022/08/07 12:39:25;;;;;;;2.40;1.10;;;23.50;99.90;;;;;;5040103;28;20400;-61
2022/08/07 12:41:54;;;;;;;3.55;1.10;;;23.40;99.90;;;;;;5041283;28;20547;-61
2022/08/07 12:44:22;;;;;;;3.63;0.82;;;23.40;99.90;;;;;;5043880;28;20063;-61
2022/08/07 12:47:18;;;;;;;2.05;1.20;;;23.50;99.90;;;;;;5044076;28;20036;-62
2022/08/07 12:50:20;;;;;;;2.25;1.20;;;23.40;99.90;;;;;;5046385;28;20032;-61
2022/08/07 12:53:02;;;;;;;2.30;0.90;;;23.20;99.90;;;;;;5045724;28;20052;-60
2022/08/07 12:55:36;;;;;;;2.47;1.02;;;23.40;99.90;;;;;;5040779;28;20075;-61
2022/08/07 12:58:05;;;;;;;3.10;1.45;;;23.50;99.90;;;;;;5042764;28;20138;-60
2022/08/07 13:00:43;;;;;;;1.20;1.00;;;23.40;99.90;;;;;;5044231;28;20052;-61
2022/08/07 13:03:34;;;;;;;3.15;1.20;;;23.40;99.90;;;;;;5048947;28;20025;-61
2022/08/07 13:06:16;;;;;;;5.78;1.20;;;23.30;99.90;;;;;;5047570;28;20028;-60
2022/08/07 13:09:00;;;;;;;1.42;0.90;;;23.40;99.90;;;;;;5042093;28;20402;-62
2022/08/07 13:11:48;;;;;;;1.17;0.80;;;23.50;99.90;;;;;;5041498;28;20036;-60
2022/08/07 13:14:45;;;;;;;3.80;1.25;;;23.40;99.90;;;;;;5045800;28;20029;-61
2022/08/07 13:17:37;;;;;;;3.17;1.00;;;23.60;99.90;;;;;;5043629;28;20026;-60
2022/08/07 13:20:17;;;;;;;2.35;1.10;;;23.50;99.90;;;;;;5049478;28;20121;-62